DKFZW EDLW-EDKS

Flight info

Callsign DKFZW
Flight time N/A
Altitude
Route
Aircraft S12S

Departure

Time 2026-04-29 13:50
Airport Dortmund Airport (EDLW)

Arrival

Time N/A
Airport EDKS
Time Latitude Longitude Altitude Speed Heading
2026-04-29 13:41 51.51237 7.60520 436 ft 0 kts 103°
2026-04-29 13:44 51.51240 7.60535 436 ft 5 kts 38°
2026-04-29 13:44 51.51239 7.60465 437 ft 14 kts 237°
2026-04-29 13:44 51.51183 7.60299 443 ft 19 kts 250°
2026-04-29 13:44 51.51203 7.60182 438 ft 14 kts 58°
2026-04-29 13:45 51.51248 7.60306 431 ft 13 kts 63°
2026-04-29 13:45 51.51291 7.60438 434 ft 14 kts 63°
2026-04-29 13:45 51.51334 7.60551 431 ft 11 kts 60°
2026-04-29 13:45 51.51383 7.60699 431 ft 21 kts 57°
2026-04-29 13:46 51.51454 7.60892 426 ft 17 kts 58°
2026-04-29 13:46 51.51512 7.61034 428 ft 14 kts 19°
2026-04-29 13:46 51.51564 7.60955 425 ft 16 kts 259°
2026-04-29 13:46 51.51554 7.60885 412 ft 5 kts 256°
2026-04-29 13:47 51.51538 7.60773 413 ft 15 kts 254°
2026-04-29 13:47 51.51528 7.60690 410 ft 0 kts 276°
2026-04-29 13:48 51.51554 7.60627 408 ft 12 kts 336°
2026-04-29 13:48 51.51621 7.60619 409 ft 7 kts 57°
2026-04-29 13:48 51.51624 7.60627 409 ft 0 kts 61°
2026-04-29 13:49 51.51706 7.60851 418 ft 45 kts 63°
2026-04-29 13:49 51.51886 7.61367 522 ft 56 kts 64°
2026-04-29 13:49 51.52093 7.61960 657 ft 65 kts 65°
2026-04-29 13:50 51.52291 7.62652 809 ft 73 kts 72°
2026-04-29 13:50 51.52113 7.63342 1125 ft 80 kts 136°
2026-04-29 13:50 51.51579 7.63735 1329 ft 86 kts 152°
2026-04-29 13:50 51.51010 7.64064 1445 ft 85 kts 146°
2026-04-29 13:51 51.50475 7.64430 1495 ft 85 kts 143°
2026-04-29 13:51 51.49943 7.64796 1605 ft 83 kts 145°
2026-04-29 13:51 51.49446 7.65218 1698 ft 76 kts 133°
2026-04-29 13:51 51.49014 7.65556 1960 ft 66 kts 140°
2026-04-29 13:52 51.48610 7.65927 2113 ft 68 kts 128°
2026-04-29 13:52 51.48294 7.66391 2436 ft 50 kts 121°
2026-04-29 13:52 51.48050 7.66773 2701 ft 47 kts 120°
2026-04-29 13:52 51.47821 7.67138 2908 ft 51 kts 119°
2026-04-29 13:53 51.47577 7.67608 2799 ft 58 kts 123°
2026-04-29 13:53 51.47260 7.68057 2666 ft 63 kts 125°
2026-04-29 13:53 51.46892 7.68550 2425 ft 73 kts 128°
2026-04-29 13:53 51.46478 7.68987 2318 ft 69 kts 132°
2026-04-29 13:54 51.46101 7.69433 2233 ft 46 kts 127°
2026-04-29 13:54 51.45780 7.69671 2059 ft 75 kts 139°
2026-04-29 13:54 51.45274 7.70057 1818 ft 89 kts 150°
2026-04-29 13:54 51.44670 7.70365 1609 ft 90 kts 221°
2026-04-29 13:55 51.44021 7.69519 977 ft 136 kts 216°
2026-04-29 13:55 51.43350 7.68640 773 ft 117 kts 242°
2026-04-29 13:55 51.42850 7.68504 957 ft 79 kts 146°
2026-04-29 13:55 51.42806 7.69089 783 ft 63 kts 12°
2026-04-29 13:56 51.43186 7.69375 687 ft 61 kts 37°
2026-04-29 13:56 51.43495 7.69828 542 ft 58 kts 34°
2026-04-29 13:56 51.43762 7.70202 511 ft 44 kts 35°
2026-04-29 13:56 51.43982 7.70447 535 ft 38 kts 13°